Time;durP1;ratioP1;P1;durP2;ratioP2;P2;SDS_P1;SDS_P2;PMS_P1;PMS_P2;Temp;Humidity;BMP_temperature;BMP_pressure;BME280_temperature;BME280_humidity;BME280_pressure;Samples;Min_cycle;Max_cycle;Signal;HPM_P1;HPM_P2
2021/07/07 00:03:03;;;;;;;10.47;9.53;;;;;;;20.39;64.62;98440.16;262763;1088;22783;-73
2021/07/07 00:08:07;;;;;;;11.05;9.80;;;;;;;20.29;64.68;98440.77;262793;1090;22786;-73
2021/07/07 00:13:12;;;;;;;10.37;9.43;;;;;;;20.22;65.45;98435.21;262414;1090;22789;-74
2021/07/07 00:18:18;;;;;;;10.45;9.00;;;;;;;20.17;65.07;98438.98;262423;1088;27080;-74
2021/07/07 00:23:27;;;;;;;11.60;10.47;;;;;;;20.15;65.52;98435.86;262684;1089;23404;-73
2021/07/07 00:28:32;;;;;;;11.93;10.80;;;;;;;20.12;65.81;98442.80;262377;1090;24541;-72
2021/07/07 00:33:37;;;;;;;11.50;10.30;;;;;;;20.07;65.64;98431.44;262740;1090;22924;-72
2021/07/07 00:38:46;;;;;;;11.27;10.03;;;;;;;20.03;66.00;98431.35;262376;1089;22799;-72
2021/07/07 00:43:50;;;;;;;11.03;9.70;;;;;;;20.02;66.45;98431.72;262356;1088;22899;-72
2021/07/07 00:49:02;;;;;;;12.85;10.70;;;;;;;19.97;66.13;98441.73;262364;1088;22786;-73
2021/07/07 00:54:19;;;;;;;13.43;10.63;;;;;;;19.95;66.68;98433.16;262469;1090;23169;-74
2021/07/07 00:59:29;;;;;;;12.90;11.55;;;;;;;19.89;66.65;98434.58;262006;1090;25849;-75
2021/07/07 01:04:34;;;;;;;12.43;11.23;;;;;;;19.74;66.76;98430.79;262938;1090;22797;-74
2021/07/07 01:09:37;;;;;;;13.37;11.97;;;;;;;19.66;66.93;98434.50;262414;1089;22816;-73
2021/07/07 01:14:43;;;;;;;12.83;11.53;;;;;;;19.60;67.16;98427.77;262365;1089;22753;-74
2021/07/07 01:19:47;;;;;;;13.25;11.85;;;;;;;19.56;67.27;98419.55;262732;1089;22757;-73
2021/07/07 01:24:51;;;;;;;13.00;11.70;;;;;;;19.49;67.70;98424.84;262732;1090;26573;-72
2021/07/07 01:29:55;;;;;;;12.87;11.00;;;;;;;19.41;67.82;98426.61;261885;1090;24298;-72
2021/07/07 01:34:58;;;;;;;11.90;10.80;;;;;;;19.33;68.07;98419.45;262749;1090;23333;-74
2021/07/07 01:40:04;;;;;;;11.90;10.70;;;;;;;19.25;68.35;98423.15;262734;1089;23368;-73
2021/07/07 01:45:16;;;;;;;12.40;11.10;;;;;;;19.19;68.68;98419.92;261922;1089;22850;-73
2021/07/07 01:50:22;;;;;;;13.00;11.80;;;;;;;19.18;68.94;98415.66;262478;1090;22799;-73
2021/07/07 01:55:25;;;;;;;15.35;12.30;;;;;;;19.13;69.14;98426.78;262797;1089;22861;-72
2021/07/07 02:00:33;;;;;;;13.45;12.00;;;;;;;19.04;69.56;98413.41;261923;1090;22774;-74
2021/07/07 02:05:38;;;;;;;14.40;11.45;;;;;;;18.94;69.50;98420.17;262380;1089;26226;-73
2021/07/07 02:10:42;;;;;;;13.20;11.67;;;;;;;18.85;69.65;98433.09;262653;1090;22897;-72
2021/07/07 02:15:46;;;;;;;14.00;12.50;;;;;;;18.77;69.97;98432.13;261960;1090;22844;-72
2021/07/07 02:20:51;;;;;;;14.35;11.60;;;;;;;18.68;70.26;98436.96;262376;1089;22975;-73
2021/07/07 02:25:55;;;;;;;13.25;10.85;;;;;;;18.63;70.97;98445.35;261825;1089;22783;-73
2021/07/07 02:31:13;;;;;;;14.73;11.60;;;;;;;18.57;70.95;98450.25;262651;1090;22766;-73
2021/07/07 02:36:16;;;;;;;14.65;12.40;;;;;;;18.54;71.08;98450.95;262020;1089;22754;-72
2021/07/07 02:41:21;;;;;;;14.50;12.45;;;;;;;18.54;71.38;98450.18;262864;1088;22822;-74
2021/07/07 02:46:24;;;;;;;15.90;12.25;;;;;;;18.54;71.51;98458.31;261916;1090;22943;-72
2021/07/07 02:51:29;;;;;;;15.70;12.40;;;;;;;18.50;71.34;98460.92;262386;1090;22816;-73
2021/07/07 02:56:32;;;;;;;15.40;12.65;;;;;;;18.45;71.99;98450.33;262386;1089;23424;-73
2021/07/07 03:01:36;;;;;;;15.40;13.20;;;;;;;18.48;71.80;98465.89;262462;1089;22784;-72
2021/07/07 03:06:40;;;;;;;16.50;13.40;;;;;;;18.47;71.98;98462.41;262007;1090;22784;-73
2021/07/07 03:11:43;;;;;;;15.65;13.40;;;;;;;18.52;72.10;98479.56;262801;1090;22912;-73
2021/07/07 03:16:47;;;;;;;18.00;14.25;;;;;;;18.58;72.01;98478.95;262019;1090;22863;-74
2021/07/07 03:21:51;;;;;;;19.60;13.90;;;;;;;18.65;72.40;98481.07;262428;1090;22756;-72
2021/07/07 03:26:57;;;;;;;17.50;13.50;;;;;;;18.92;72.49;98484.85;262384;1090;22760;-72
2021/07/07 03:32:00;;;;;;;15.10;12.75;;;;;;;19.35;72.60;98487.79;262329;1090;22799;-73
2021/07/07 03:37:04;;;;;;;15.65;13.20;;;;;;;19.92;72.37;98482.01;262519;1090;25829;-73
2021/07/07 03:42:08;;;;;;;14.60;13.10;;;;;;;20.42;71.32;98482.19;261916;1090;22851;-72
2021/07/07 03:47:12;;;;;;;18.00;13.40;;;;;;;21.02;70.46;98487.88;261844;1090;22791;-73
2021/07/07 03:52:22;;;;;;;14.25;12.83;;;;;;;21.52;69.29;98495.27;262057;1089;22753;-73
2021/07/07 03:57:30;;;;;;;15.05;12.60;;;;;;;22.05;68.62;98495.16;261919;1090;22782;-74
2021/07/07 04:02:34;;;;;;;15.65;13.65;;;;;;;22.53;66.87;98499.19;261827;1088;26317;-72
2021/07/07 04:07:40;;;;;;;16.93;13.65;;;;;;;22.81;65.95;98497.89;261816;1089;22757;-73
2021/07/07 04:13:20;;;;;;;14.90;13.45;;;;;;;22.80;65.16;98507.23;261835;1090;22948;-73
2021/07/07 04:18:26;;;;;;;15.13;13.55;;;;;;;22.66;65.07;98505.93;261945;1089;25826;-74
2021/07/07 04:23:30;;;;;;;16.40;14.05;;;;;;;22.56;65.32;98514.81;261912;1090;22785;-74
2021/07/07 04:28:40;;;;;;;15.80;14.03;;;;;;;22.22;65.43;98514.83;261815;1090;26694;-74
2021/07/07 04:33:44;;;;;;;15.00;13.40;;;;;;;21.98;65.88;98505.98;262653;1090;23075;-74
2021/07/07 04:38:54;;;;;;;15.63;13.25;;;;;;;21.88;66.84;98512.88;261846;1090;22760;-74
2021/07/07 04:44:06;;;;;;;16.20;14.50;;;;;;;21.83;67.65;98518.64;262361;1090;24342;-73
2021/07/07 04:49:11;;;;;;;16.28;13.45;;;;;;;21.95;68.00;98530.47;262737;1089;22955;-74
2021/07/07 04:54:31;;;;;;;;;;;;;;;;;;;;;
2021/07/07 04:59:57;;;;;;;14.40;12.83;;;;;;;22.16;67.55;98522.56;262685;1090;26347;-73
2021/07/07 05:05:48;;;;;;;14.15;12.40;;;;;;;22.32;67.61;98527.02;261805;1090;23188;-74
2021/07/07 05:11:05;;;;;;;15.43;13.83;;;;;;;22.43;67.66;98529.87;262278;1090;22778;-74
2021/07/07 05:16:13;;;;;;;15.67;13.37;;;;;;;22.59;67.98;98526.93;261782;1090;25964;-73
2021/07/07 05:21:17;;;;;;;14.75;13.00;;;;;;;22.78;67.62;98534.92;261817;1090;22843;-74
2021/07/07 05:26:21;;;;;;;15.28;13.60;;;;;;;22.97;67.31;98527.66;262517;1089;22787;-74
2021/07/07 05:31:27;;;;;;;15.75;14.13;;;;;;;23.18;67.32;98527.88;262076;1090;22797;-71
2021/07/07 05:36:39;;;;;;;15.33;13.43;;;;;;;23.36;66.55;98527.20;262927;1089;22767;-72
2021/07/07 05:41:54;;;;;;;16.13;13.60;;;;;;;23.52;66.68;98535.13;262348;1089;23363;-71
2021/07/07 05:47:27;;;;;;;13.80;12.35;;;;;;;23.77;66.04;98529.00;262667;1090;24332;-72
2021/07/07 05:52:58;;;;;;;11.00;9.93;;;;;;;23.98;64.30;98537.36;262792;1090;22793;-74
2021/07/07 05:58:07;;;;;;;11.00;8.90;;;;;;;24.16;63.78;98542.91;262557;1089;22786;-73
2021/07/07 06:03:19;;;;;;;9.33;8.40;;;;;;;24.37;62.83;98544.92;262349;1090;22763;-73
2021/07/07 06:08:26;;;;;;;9.25;7.70;;;;;;;24.56;62.17;98543.01;263024;1089;26302;-72
2021/07/07 06:13:37;;;;;;;9.38;8.10;;;;;;;24.75;61.76;98539.17;262857;1090;22767;-72
2021/07/07 06:18:55;;;;;;;9.40;8.03;;;;;;;24.90;60.55;98550.91;262940;1089;22829;-72
2021/07/07 06:24:11;;;;;;;9.78;8.75;;;;;;;25.02;60.07;98558.75;263105;1090;22750;-73
2021/07/07 06:29:20;;;;;;;10.00;8.60;;;;;;;25.18;59.46;98563.83;263309;1090;26248;-73
2021/07/07 06:34:45;;;;;;;10.58;8.55;;;;;;;25.35;59.05;98566.98;263109;1090;23325;-73
2021/07/07 06:39:57;;;;;;;8.38;7.58;;;;;;;25.57;58.58;98562.27;268486;1090;22864;-73
2021/07/07 06:45:07;;;;;;;9.60;8.60;;;;;;;25.78;58.60;98558.69;265218;1089;23030;-73
2021/07/07 06:50:18;;;;;;;8.25;7.45;;;;;;;26.02;58.04;98570.79;263450;1088;24320;-72
2021/07/07 06:55:21;;;;;;;7.98;7.23;;;;;;;26.29;57.35;98567.56;262786;1090;22779;-71
2021/07/07 07:00:25;;;;;;;7.40;6.80;;;;;;;26.52;56.38;98566.27;263031;1090;26216;-72
2021/07/07 07:05:33;;;;;;;7.13;6.43;;;;;;;26.78;55.68;98560.25;262687;1090;24037;-73
2021/07/07 07:10:37;;;;;;;7.40;6.70;;;;;;;27.05;55.42;98567.13;263571;1090;25986;-73
2021/07/07 07:15:50;;;;;;;6.43;5.88;;;;;;;27.37;54.46;98566.88;262532;1089;25804;-72
2021/07/07 07:20:57;;;;;;;6.25;5.65;;;;;;;27.57;52.30;98575.33;262591;1089;22800;-72
2021/07/07 07:26:01;;;;;;;5.68;5.20;;;;;;;27.80;51.21;98571.96;262755;1090;22816;-73
2021/07/07 07:31:05;;;;;;;4.70;4.30;;;;;;;28.03;50.15;98575.29;262621;1088;25944;-72
2021/07/07 07:36:31;;;;;;;5.80;5.27;;;;;;;28.25;50.04;98567.55;262648;1090;22776;-72
2021/07/07 07:41:38;;;;;;;6.13;5.45;;;;;;;28.41;49.09;98566.94;262327;1089;26254;-73
2021/07/07 07:46:58;;;;;;;5.28;4.83;;;;;;;28.61;48.84;98580.83;262794;1090;22786;-72
2021/07/07 07:52:41;;;;;;;;;;;;;;;28.80;46.63;98582.94;262975;1089;22822;-73
2021/07/07 08:04:57;;;;;;;5.90;4.85;;;;;;;29.23;47.12;98573.22;262625;1090;27150;-72
2021/07/07 08:10:20;;;;;;;5.63;5.13;;;;;;;29.55;46.79;98587.68;262804;1089;22814;-71
2021/07/07 08:15:28;;;;;;;5.85;5.35;;;;;;;29.62;44.67;98588.34;262712;1090;22751;-72
2021/07/07 08:20:35;;;;;;;5.53;4.98;;;;;;;29.78;45.18;98590.41;262804;1088;22847;-71
2021/07/07 08:25:41;;;;;;;6.65;5.53;;;;;;;29.84;44.33;98591.52;262598;1090;22763;-73
2021/07/07 08:30:48;;;;;;;6.77;6.10;;;;;;;30.03;45.03;98595.48;262486;1090;22764;-72
2021/07/07 08:35:52;;;;;;;7.05;5.95;;;;;;;30.23;45.07;98599.45;262436;1089;22765;-72
2021/07/07 08:41:03;;;;;;;7.50;6.90;;;;;;;30.23;45.48;98607.73;262562;1089;22848;-72
2021/07/07 08:46:09;;;;;;;7.83;7.03;;;;;;;30.24;45.26;98607.30;262724;1090;25976;-72
2021/07/07 08:51:13;;;;;;;7.35;6.65;;;;;;;30.28;44.31;98605.25;262435;1090;22775;-73
2021/07/07 08:56:49;;;;;;;11.03;6.45;;;;;;;30.46;44.57;98615.97;262585;1089;22840;-72
2021/07/07 09:02:26;;;;;;;9.80;7.65;;;;;;;30.50;44.43;98597.32;262724;1089;26388;-74
2021/07/07 09:07:45;;;;;;;6.28;5.73;;;;;;;30.61;42.80;98607.36;262937;1090;23535;-73
2021/07/07 09:13:15;;;;;;;8.10;6.13;;;;;;;30.72;43.44;98605.13;263157;1090;22841;-74
2021/07/07 09:18:32;;;;;;;7.63;6.83;;;;;;;30.93;43.07;98609.39;263423;1089;26379;-72
2021/07/07 09:23:36;;;;;;;8.05;7.23;;;;;;;30.94;43.06;98612.95;263351;1089;22814;-72
2021/07/07 09:28:43;;;;;;;7.28;6.63;;;;;;;30.96;42.62;98608.55;264103;1089;25957;-72
2021/07/07 09:33:47;;;;;;;8.08;7.25;;;;;;;30.98;42.98;98610.88;262190;1090;22895;-73
2021/07/07 09:38:58;;;;;;;8.90;7.35;;;;;;;31.16;43.46;98604.95;262761;1090;22763;-73
2021/07/07 09:44:06;;;;;;;5.78;5.28;;;;;;;31.46;41.04;98617.63;263156;1088;22785;-73
2021/07/07 09:49:51;;;;;;;6.28;5.65;;;;;;;31.56;39.48;98622.13;262847;1089;22771;-73
2021/07/07 09:55:17;;;;;;;7.03;6.38;;;;;;;31.75;39.50;98616.92;262835;1089;22971;-72
2021/07/07 10:00:24;;;;;;;7.00;6.28;;;;;;;31.84;39.16;98619.06;263184;1089;22839;-72
2021/07/07 10:05:50;;;;;;;6.58;5.98;;;;;;;31.92;39.04;98614.13;262898;1089;22818;-72
2021/07/07 10:11:02;;;;;;;6.55;6.05;;;;;;;32.15;39.59;98615.87;262835;1088;26259;-71
2021/07/07 10:16:07;;;;;;;6.18;5.58;;;;;;;32.35;37.38;98616.48;263035;1089;22798;-72
2021/07/07 10:21:11;;;;;;;5.75;5.25;;;;;;;32.31;36.98;98618.58;262913;1090;22763;-73
2021/07/07 10:26:16;;;;;;;5.50;5.00;;;;;;;32.24;37.11;98616.78;262176;1089;22760;-72
2021/07/07 10:31:21;;;;;;;5.58;5.03;;;;;;;32.18;36.85;98626.86;262588;1089;22783;-73
2021/07/07 10:36:32;;;;;;;5.20;4.83;;;;;;;32.08;36.97;98622.35;262622;1090;22776;-73
2021/07/07 10:41:42;;;;;;;6.77;6.17;;;;;;;32.26;37.89;98621.11;262793;1089;22718;-73
2021/07/07 10:46:55;;;;;;;5.30;4.90;;;;;;;32.52;35.85;98628.25;262777;1088;26050;-73
2021/07/07 10:52:10;;;;;;;5.50;5.00;;;;;;;32.75;36.29;98618.09;263285;1088;26357;-73
2021/07/07 11:09:29;;;;;;;5.93;5.33;;;;;;;33.19;34.65;98607.20;262798;1089;26401;-73
2021/07/07 11:15:14;;;;;;;;;;;;;;;;;;;;;
2021/07/07 11:20:31;;;;;;;5.70;5.30;;;;;;;33.33;34.10;98613.55;263053;1089;23739;-72
2021/07/07 11:25:36;;;;;;;5.33;4.88;;;;;;;33.05;35.12;98616.00;262529;1090;22776;-73
2021/07/07 11:31:03;;;;;;;4.53;4.13;;;;;;;33.41;35.24;98614.83;263651;1088;22918;-72
2021/07/07 11:36:14;;;;;;;5.25;4.60;;;;;;;33.86;35.60;98612.93;262430;1090;22784;-72
2021/07/07 11:41:18;;;;;;;4.80;4.40;;;;;;;34.41;34.29;98601.44;262521;1089;22857;-72
2021/07/07 11:46:23;;;;;;;5.23;4.83;;;;;;;34.53;33.51;98614.48;262623;1088;22848;-76
2021/07/07 11:51:38;;;;;;;5.23;4.83;;;;;;;34.65;33.36;98612.83;263117;1089;22811;-72
2021/07/07 11:56:47;;;;;;;4.90;4.60;;;;;;;34.50;33.54;98620.17;263307;1089;22763;-73
2021/07/07 12:01:59;;;;;;;5.70;5.20;;;;;;;34.54;33.95;98616.02;263473;1089;22750;-72
2021/07/07 12:07:03;;;;;;;7.38;6.63;;;;;;;34.44;33.19;98617.21;265182;1089;25062;-72
2021/07/07 12:12:08;;;;;;;6.03;5.20;;;;;;;34.53;33.32;98617.27;262955;1090;22844;-74
2021/07/07 12:17:25;;;;;;;5.83;5.35;;;;;;;34.66;33.71;98621.97;262727;1090;26271;-73
2021/07/07 12:23:02;;;;;;;6.60;6.08;;;;;;;34.51;33.60;98624.52;262915;1089;25992;-73
2021/07/07 12:29:16;;;;;;;;;;;;;;;;;;;;;
2021/07/07 12:35:14;;;;;;;5.80;5.38;;;;;;;35.31;33.12;98625.00;262217;1089;22911;-73
2021/07/07 12:40:34;;;;;;;;;;;;;;;;;;;;;
2021/07/07 12:45:44;;;;;;;6.83;6.13;;;;;;;34.71;33.47;98635.25;262528;1089;22846;-72
2021/07/07 12:50:50;;;;;;;10.40;6.30;;;;;;;34.50;33.83;98631.30;262185;1090;24301;-73
2021/07/07 12:56:05;;;;;;;6.75;6.13;;;;;;;34.26;33.52;98629.75;262621;1090;22767;-71
2021/07/07 13:01:28;;;;;;;7.55;6.25;;;;;;;34.03;34.00;98641.33;262609;1089;22912;-72
2021/07/07 13:06:35;;;;;;;7.35;6.60;;;;;;;33.86;33.90;98635.95;263227;1090;22895;-73
2021/07/07 13:11:39;;;;;;;8.60;7.20;;;;;;;33.51;34.12;98641.48;263243;1089;23197;-72
2021/07/07 13:16:52;;;;;;;7.13;6.53;;;;;;;33.34;34.66;98651.95;262656;1090;22851;-72
2021/07/07 13:22:07;;;;;;;7.37;6.87;;;;;;;33.27;34.87;98649.39;262786;1090;22716;-72
2021/07/07 13:27:18;;;;;;;7.60;7.00;;;;;;;33.41;34.73;98651.72;262942;1089;22763;-72
2021/07/07 13:32:27;;;;;;;7.83;7.13;;;;;;;33.55;34.99;98644.91;263258;1090;23689;-71
2021/07/07 13:37:39;;;;;;;8.00;7.20;;;;;;;33.80;35.33;98651.62;262874;1090;22857;-72
2021/07/07 13:42:48;;;;;;;7.68;6.98;;;;;;;33.75;34.64;98652.95;262903;1089;22775;-72
2021/07/07 13:47:52;;;;;;;10.35;6.85;;;;;;;33.94;33.62;98650.34;262957;1090;23774;-71
2021/07/07 13:53:07;;;;;;;6.68;6.08;;;;;;;33.83;33.79;98647.17;262578;1090;23002;-70
2021/07/07 13:58:15;;;;;;;7.70;7.00;;;;;;;33.81;34.55;98644.84;263113;1089;22763;-71
2021/07/07 14:04:18;;;;;;;;;;;;;;;;;;;;;
2021/07/07 14:09:58;;;;;;;7.90;7.20;;;;;;;33.96;35.15;98658.23;262755;1090;22786;-72
2021/07/07 14:15:02;;;;;;;7.70;7.00;;;;;;;33.94;34.97;98653.92;262762;1089;22766;-73
2021/07/07 14:20:07;;;;;;;7.70;6.90;;;;;;;33.94;35.54;98642.02;262446;1089;22767;-72
2021/07/07 14:25:11;;;;;;;7.05;6.55;;;;;;;33.82;34.97;98651.96;262429;1090;22817;-71
2021/07/07 14:30:15;;;;;;;7.05;6.45;;;;;;;33.76;35.08;98645.41;262695;1089;22770;-72
2021/07/07 14:35:19;;;;;;;7.15;6.55;;;;;;;33.69;35.09;98654.76;262292;1090;22770;-72
2021/07/07 14:40:22;;;;;;;7.70;7.00;;;;;;;33.67;35.25;98646.08;261827;1089;24409;-72
2021/07/07 14:45:26;;;;;;;7.58;6.90;;;;;;;33.64;35.38;98651.78;262662;1090;22767;-72
2021/07/07 14:50:30;;;;;;;7.78;6.90;;;;;;;33.66;35.60;98652.86;262341;1090;23487;-72
2021/07/07 14:55:34;;;;;;;7.53;6.75;;;;;;;33.68;35.33;98660.77;262826;1090;24225;-71
2021/07/07 15:00:38;;;;;;;7.58;6.88;;;;;;;33.61;35.54;98653.45;263031;1090;22793;-72
2021/07/07 15:05:42;;;;;;;7.95;7.35;;;;;;;33.43;35.31;98648.48;262642;1089;22840;-72
2021/07/07 15:10:46;;;;;;;7.30;6.68;;;;;;;33.31;35.83;98649.28;262729;1090;24314;-72
2021/07/07 15:15:51;;;;;;;7.55;6.88;;;;;;;33.18;35.82;98652.81;262502;1090;22793;-71
2021/07/07 15:20:54;;;;;;;7.45;6.75;;;;;;;32.95;35.88;98653.16;262371;1089;22809;-71
2021/07/07 15:25:59;;;;;;;7.30;6.70;;;;;;;33.03;36.17;98654.48;262384;1090;22790;-71
2021/07/07 15:31:05;;;;;;;8.03;7.27;;;;;;;33.23;36.16;98659.85;262652;1090;22762;-72
2021/07/07 15:36:09;;;;;;;8.37;7.67;;;;;;;33.48;36.92;98647.14;262559;1090;22775;-71
2021/07/07 15:41:22;;;;;;;7.57;6.97;;;;;;;33.73;36.54;98654.62;262404;1090;25861;-72
2021/07/07 15:46:26;;;;;;;7.53;6.85;;;;;;;33.91;36.81;98660.36;262341;1090;22771;-71
2021/07/07 15:51:30;;;;;;;6.45;5.93;;;;;;;33.86;37.54;98668.48;262416;1089;22917;-72
2021/07/07 15:56:34;;;;;;;6.15;5.55;;;;;;;33.57;37.76;98678.55;262454;1090;22760;-72
2021/07/07 16:01:38;;;;;;;8.85;4.80;;;;;;;33.02;39.26;98681.47;262816;1090;22817;-72
2021/07/07 16:06:41;;;;;;;11.37;4.57;;;;;;;32.18;40.33;98709.98;262654;1090;22786;-72
2021/07/07 16:11:45;;;;;;;5.40;3.70;;;;;;;31.30;41.66;98706.17;262459;1089;22774;-72
2021/07/07 16:16:49;;;;;;;4.78;3.93;;;;;;;30.61;42.47;98715.15;262734;1088;25839;-71
2021/07/07 16:21:55;;;;;;;6.00;4.23;;;;;;;30.04;43.42;98737.11;262467;1089;22886;-72
2021/07/07 16:26:58;;;;;;;7.98;4.10;;;;;;;29.55;44.44;98747.73;261428;1090;22770;-72
2021/07/07 16:32:03;;;;;;;5.70;4.10;;;;;;;29.22;45.25;98752.92;262365;1089;22854;-72
2021/07/07 16:37:06;;;;;;;5.85;3.58;;;;;;;28.87;45.48;98755.72;262839;1089;23442;-71
2021/07/07 16:42:10;;;;;;;7.25;3.40;;;;;;;28.54;46.06;98765.52;262298;1090;26232;-70
2021/07/07 16:47:13;;;;;;;5.83;3.70;;;;;;;28.25;46.59;98755.59;262581;1089;24352;-71
2021/07/07 16:52:17;;;;;;;5.87;3.00;;;;;;;28.08;47.12;98776.59;262801;1090;25934;-72
2021/07/07 16:57:37;;;;;;;;;;;;;;;;;;;;;
2021/07/07 17:02:49;;;;;;;4.58;3.23;;;;;;;27.64;47.95;98783.58;262695;1090;22959;-71
2021/07/07 17:07:54;;;;;;;5.07;3.20;;;;;;;27.39;48.27;98786.49;262336;1089;24339;-71
2021/07/07 17:13:07;;;;;;;7.90;3.53;;;;;;;27.11;48.67;98799.97;261929;1090;22815;-73
2021/07/07 17:18:20;;;;;;;5.70;3.10;;;;;;;27.37;49.12;98799.88;262493;1090;25845;-72
2021/07/07 17:23:25;;;;;;;7.43;3.18;;;;;;;27.23;48.68;98806.97;262095;1089;22843;-72
2021/07/07 17:28:55;;;;;;;;;;;;;;;26.77;48.83;98808.70;262935;1088;24343;-73
2021/07/07 17:34:19;;;;;;;4.80;3.00;;;;;;;26.57;49.51;98818.53;262446;1089;23140;-71
2021/07/07 17:39:25;;;;;;;3.73;3.23;;;;;;;26.53;49.85;98826.02;262199;1089;22784;-72
2021/07/07 17:44:31;;;;;;;5.60;2.98;;;;;;;26.34;49.93;98838.97;262295;1090;22859;-72
2021/07/07 17:49:35;;;;;;;3.40;3.10;;;;;;;25.90;50.03;98842.86;262265;1090;25868;-72
2021/07/07 17:54:44;;;;;;;3.63;2.93;;;;;;;25.54;51.06;98851.78;262755;1089;22827;-71
2021/07/07 17:59:48;;;;;;;3.48;3.18;;;;;;;24.95;51.95;98860.13;262524;1090;22780;-72
2021/07/07 18:05:20;;;;;;;3.43;2.95;;;;;;;24.46;52.17;98875.81;262934;1090;22851;-72
2021/07/07 18:10:43;;;;;;;3.90;3.10;;;;;;;24.11;53.55;98879.05;262435;1089;25858;-72
2021/07/07 18:15:49;;;;;;;3.80;2.58;;;;;;;23.81;54.23;98877.95;262733;1089;22822;-72
2021/07/07 18:20:53;;;;;;;3.53;2.60;;;;;;;23.55;55.02;98887.80;262485;1089;22790;-72
2021/07/07 18:25:59;;;;;;;2.95;2.60;;;;;;;23.29;55.74;98898.81;262741;1089;22800;-72
2021/07/07 18:31:03;;;;;;;3.05;2.48;;;;;;;23.04;55.98;98893.76;262331;1089;22782;-72
2021/07/07 18:36:18;;;;;;;3.80;2.65;;;;;;;22.81;56.97;98885.64;262343;1090;22768;-72
2021/07/07 18:41:22;;;;;;;4.78;2.65;;;;;;;22.56;57.87;98886.81;262746;1088;22917;-73
2021/07/07 18:46:25;;;;;;;2.95;2.25;;;;;;;22.33;58.54;98891.47;262370;1089;22918;-73
2021/07/07 18:51:29;;;;;;;2.63;2.33;;;;;;;22.19;58.87;98905.69;262680;1089;22917;-72
2021/07/07 18:56:33;;;;;;;2.30;2.10;;;;;;;22.08;59.41;98918.32;262387;1090;22752;-72
2021/07/07 19:01:47;;;;;;;2.58;2.00;;;;;;;21.97;59.21;98935.28;262738;1090;22757;-72
2021/07/07 19:06:53;;;;;;;2.45;2.13;;;;;;;21.87;59.30;98941.34;262527;1090;22761;-72
2021/07/07 19:11:57;;;;;;;2.40;2.20;;;;;;;21.75;59.70;98933.30;262916;1090;26235;-72
2021/07/07 19:17:07;;;;;;;2.98;2.45;;;;;;;21.61;60.45;98948.20;262347;1090;22774;-70
2021/07/07 19:22:14;;;;;;;4.65;2.28;;;;;;;21.48;60.24;98954.92;261836;1090;22767;-71
2021/07/07 19:27:18;;;;;;;3.43;2.00;;;;;;;21.34;60.92;98961.64;262549;1090;24317;-72
2021/07/07 19:32:21;;;;;;;4.25;2.40;;;;;;;21.22;61.39;98967.20;262554;1089;22888;-72
2021/07/07 19:37:27;;;;;;;3.55;2.10;;;;;;;21.09;61.55;98971.20;262462;1088;22787;-72
2021/07/07 19:42:31;;;;;;;1.90;1.75;;;;;;;20.99;61.80;98983.41;262275;1090;25995;-73
2021/07/07 19:47:35;;;;;;;3.78;2.10;;;;;;;20.88;61.90;98999.48;262319;1090;23439;-72
2021/07/07 19:52:39;;;;;;;2.77;1.90;;;;;;;20.77;62.12;98999.22;262739;1089;25941;-72
2021/07/07 19:58:15;;;;;;;2.15;1.95;;;;;;;20.68;62.48;99002.13;262719;1090;24346;-73
2021/07/07 20:04:11;;;;;;;1.80;1.60;;;;;;;20.59;62.50;99012.34;262323;1090;22921;-72
2021/07/07 20:09:35;;;;;;;2.23;1.40;;;;;;;20.57;62.87;99019.30;262504;1089;22775;-71
2021/07/07 20:14:38;;;;;;;3.17;1.57;;;;;;;20.53;63.35;99016.47;262570;1090;25748;-72
2021/07/07 20:19:43;;;;;;;1.83;1.43;;;;;;;20.51;63.25;99018.77;262430;1090;22784;-72
2021/07/07 20:24:47;;;;;;;3.15;1.95;;;;;;;20.49;63.05;99029.19;262780;1088;23011;-71
2021/07/07 20:29:51;;;;;;;3.57;1.80;;;;;;;20.46;62.82;99043.50;262571;1089;22755;-71
2021/07/07 20:34:54;;;;;;;2.73;1.97;;;;;;;20.39;63.48;99030.48;262140;1090;22772;-72
2021/07/07 20:40:13;;;;;;;4.75;1.60;;;;;;;20.28;63.56;99041.07;262531;1090;25836;-73
2021/07/07 20:45:25;;;;;;;2.53;1.77;;;;;;;20.23;63.95;99043.25;262413;1088;25831;-73
2021/07/07 20:50:28;;;;;;;2.30;1.67;;;;;;;20.08;64.08;99045.58;262747;1090;22843;-72
2021/07/07 20:55:32;;;;;;;2.35;1.70;;;;;;;19.94;64.32;99051.40;262763;1088;24142;-71
2021/07/07 21:00:36;;;;;;;4.63;1.63;;;;;;;19.84;64.51;99054.61;262412;1089;25868;-72
2021/07/07 21:05:41;;;;;;;2.93;1.45;;;;;;;19.71;65.13;99048.34;262406;1090;25889;-72
2021/07/07 21:10:44;;;;;;;1.70;1.60;;;;;;;19.60;65.42;99045.33;262421;1090;22770;-72
2021/07/07 21:15:49;;;;;;;1.90;1.60;;;;;;;19.51;65.36;99063.67;262271;1090;22789;-73
2021/07/07 21:20:52;;;;;;;3.35;1.80;;;;;;;19.43;65.56;99051.00;262680;1090;22789;-71
2021/07/07 21:25:56;;;;;;;1.80;1.70;;;;;;;19.35;65.85;99070.91;262522;1090;23350;-72
2021/07/07 21:31:13;;;;;;;3.15;1.70;;;;;;;19.26;65.84;99066.38;262406;1090;23558;-72
2021/07/07 21:36:18;;;;;;;1.60;1.50;;;;;;;19.18;66.15;99070.03;262442;1090;27058;-71
2021/07/07 21:41:21;;;;;;;2.85;1.70;;;;;;;19.11;65.87;99076.02;262407;1089;22998;-72
2021/07/07 21:46:28;;;;;;;2.20;1.87;;;;;;;19.05;66.53;99076.56;262755;1089;22766;-72
2021/07/07 21:51:35;;;;;;;1.90;1.80;;;;;;;18.94;66.65;99082.44;262394;1089;25865;-71
2021/07/07 21:56:39;;;;;;;2.50;1.70;;;;;;;18.87;66.77;99087.60;262723;1090;22804;-72
2021/07/07 22:01:42;;;;;;;2.35;1.70;;;;;;;18.84;67.05;99090.97;262511;1090;22820;-72
2021/07/07 22:06:46;;;;;;;2.55;1.90;;;;;;;18.78;67.11;99100.46;262711;1088;22834;-73
2021/07/07 22:11:50;;;;;;;2.45;1.70;;;;;;;18.68;67.25;99098.96;262771;1089;22819;-71
2021/07/07 22:16:56;;;;;;;2.45;1.70;;;;;;;18.60;67.18;99092.48;262477;1090;22787;-72
2021/07/07 22:22:00;;;;;;;2.60;1.80;;;;;;;18.55;67.35;99095.42;262384;1090;26270;-71
2021/07/07 22:27:04;;;;;;;1.80;1.60;;;;;;;18.50;67.64;99094.84;262516;1090;24309;-71
2021/07/07 22:32:09;;;;;;;1.60;1.50;;;;;;;18.42;67.69;99094.55;262388;1089;22892;-72
2021/07/07 22:37:12;;;;;;;2.90;1.70;;;;;;;18.33;67.79;99093.05;262796;1090;22771;-71
2021/07/07 22:42:29;;;;;;;2.23;1.70;;;;;;;18.27;68.21;99087.03;262271;1090;25973;-72
2021/07/07 22:47:46;;;;;;;3.10;1.85;;;;;;;18.21;68.23;99083.73;262733;1090;22769;-71
2021/07/07 22:52:54;;;;;;;3.95;1.95;;;;;;;18.15;68.13;99087.00;262796;1090;25855;-71
2021/07/07 22:58:03;;;;;;;2.30;1.40;;;;;;;18.09;68.63;99083.66;262417;1089;26343;-72
2021/07/07 23:03:25;;;;;;;;;;;;;;;;;;;;;
2021/07/07 23:09:03;;;;;;;1.75;1.60;;;;;;;17.90;68.84;99094.95;262757;1089;23439;-70
2021/07/07 23:14:07;;;;;;;3.17;2.20;;;;;;;17.84;69.14;99088.11;262754;1090;23444;-71
2021/07/07 23:19:11;;;;;;;4.40;1.80;;;;;;;17.76;69.31;99090.56;262497;1090;22793;-73
2021/07/07 23:24:15;;;;;;;1.90;1.80;;;;;;;17.70;69.64;99096.52;262850;1090;23349;-71
2021/07/07 23:29:20;;;;;;;3.30;2.55;;;;;;;17.64;69.95;99101.30;262854;1090;22783;-71
2021/07/07 23:34:25;;;;;;;2.45;2.05;;;;;;;17.58;69.52;99108.82;262702;1089;22793;-72
2021/07/07 23:39:33;;;;;;;2.15;1.90;;;;;;;17.53;70.29;99117.16;262383;1090;22766;-72
2021/07/07 23:44:37;;;;;;;2.75;2.00;;;;;;;17.50;70.37;99134.06;262426;1090;22801;-72
2021/07/07 23:49:40;;;;;;;3.40;1.90;;;;;;;17.44;70.70;99141.55;262384;1089;25881;-71
2021/07/07 23:54:45;;;;;;;3.95;2.00;;;;;;;17.37;70.68;99140.48;262673;1090;25832;-71
2021/07/07 23:59:49;;;;;;;3.15;1.90;;;;;;;17.34;70.91;99151.96;262792;1089;22888;-72
